Аэропорт: Емельяново. Красноярск

ICAO: UNKL

METAR:
2019-09-21 16:00:00
UNKL 211600Z 00000MPS CAVOK 08/01 Q1021 R29/CLRD65 NOSIG RMK QFE740
METAR:
2019-09-21 13:59:00
TAF UNKL 211359Z 2115/2215 23003G10MPS 9999 SCT040 FM211800 21003MPS 3100 BR FEW003 SCT020 FM220300 11003G08MPS CAVOK